Light Street, Pennsylvania
Current Conditions -  °F | °C
As of 8:35 PM on Friday 24 Oct 2014 (Local Time) from KHZL Reporting Station
Clear Clear  
Wind Chill: 55°   Ceiling: Unl
Heat Index: 55°   Visibility: 10mi
Dew Point: 28°   Wind: 13mph
Humidity: 36%   Direction: 310°NW
Pressure: 29.92"   Gusts: 17mph
Location:  41.04°N, 76.42°W
Report Text: KHZL 250035Z AUTO 31011G15KT 10SM CLR 13/M02 A2992 RMK AO2
Loading
Personal Weather Stations






























Interactive Weather Map
Tropical Storm Tracking
New forecast layout! Learn more

10-Day Weather Forecast

Advertisements
Track Severe Weather on mobile